createdAt,value
2023-04-15T00:01:30.431Z,33.00
2023-04-15T00:03:35.278Z,35.50
2023-04-15T00:05:38.752Z,37.30
2023-04-15T00:07:41.828Z,35.65
2023-04-15T00:09:45.160Z,41.10
2023-04-15T00:11:48.416Z,43.03
2023-04-15T00:13:51.543Z,38.25
2023-04-15T00:15:54.405Z,41.38
2023-04-15T00:17:57.423Z,45.03
2023-04-15T00:20:01.906Z,42.90
2023-04-15T00:22:04.980Z,46.40
2023-04-15T00:24:08.008Z,41.40
2023-04-15T00:26:10.921Z,51.65
2023-04-15T00:28:14.226Z,44.20
2023-04-15T00:30:18.918Z,53.83
2023-04-15T00:32:22.316Z,48.70
2023-04-15T00:34:25.217Z,46.67
2023-04-15T00:36:29.908Z,50.78
2023-04-15T00:38:32.900Z,46.73
2023-04-15T00:40:35.855Z,53.42
2023-04-15T00:42:39.665Z,53.03
2023-04-15T00:44:43.070Z,53.60
2023-04-15T00:46:47.070Z,54.08
2023-04-15T00:48:52.206Z,52.38
2023-04-15T00:50:55.203Z,60.20
2023-04-15T00:52:59.562Z,52.67
2023-04-15T00:55:02.880Z,63.67
2023-04-15T00:57:07.186Z,55.28
2023-04-15T00:59:10.404Z,63.67
2023-04-15T01:01:13.619Z,67.70
2023-04-15T01:03:16.663Z,64.28
2023-04-15T01:05:19.975Z,60.92
2023-04-15T01:07:22.862Z,64.97
2023-04-15T01:09:27.650Z,66.60
2023-04-15T01:11:34.610Z,63.50
2023-04-15T01:13:37.653Z,64.10
2023-04-15T01:15:40.898Z,60.00
2023-04-15T01:17:43.943Z,61.72
2023-04-15T01:19:46.949Z,61.55
2023-04-15T01:21:50.334Z,60.58
2023-04-15T01:23:57.141Z,61.70
2023-04-15T01:26:02.017Z,62.35
2023-04-15T01:28:05.430Z,65.90
2023-04-15T01:30:10.907Z,62.83
2023-04-15T01:32:13.769Z,65.13
2023-04-15T01:34:35.935Z,66.85
2023-04-15T01:36:57.473Z,69.13
2023-04-15T01:39:00.748Z,61.03
2023-04-15T01:41:07.174Z,63.55
2023-04-15T01:43:11.391Z,68.68
2023-04-15T01:45:15.731Z,70.00
2023-04-15T01:47:20.039Z,71.63
2023-04-15T01:49:25.035Z,61.97
2023-04-15T01:51:31.353Z,63.75
2023-04-15T01:53:36.154Z,63.50
2023-04-15T01:55:41.570Z,64.32
2023-04-15T01:57:47.729Z,74.90
2023-04-15T01:59:51.976Z,56.58
2023-04-15T02:01:56.550Z,63.20
2023-04-15T02:04:01.443Z,63.70
2023-04-15T02:06:08.355Z,59.80
2023-04-15T02:08:12.838Z,66.65
2023-04-15T02:10:17.499Z,68.75
2023-04-15T02:12:21.637Z,66.93
2023-04-15T02:14:27.427Z,67.43
2023-04-15T02:16:31.779Z,70.15
2023-04-15T02:18:35.883Z,66.63
2023-04-15T02:20:40.075Z,72.18
2023-04-15T02:22:44.427Z,69.10
2023-04-15T02:24:48.887Z,68.72
2023-04-15T02:26:53.190Z,65.03
2023-04-15T02:28:59.081Z,53.08
2023-04-15T02:31:08.412Z,53.58
2023-04-15T02:33:12.720Z,42.80
2023-04-15T02:35:16.958Z,32.15
2023-04-15T02:39:26.757Z,31.90
2023-04-15T02:41:31.508Z,25.95
2023-04-15T02:43:36.358Z,26.33
2023-04-15T02:45:40.762Z,20.70
2023-04-15T02:47:47.638Z,24.90
2023-04-15T02:49:52.046Z,22.98
2023-04-15T02:51:56.196Z,18.25
2023-04-15T02:54:00.362Z,18.85
2023-04-15T02:56:06.462Z,15.95
2023-04-15T02:58:11.355Z,16.13
2023-04-15T03:00:16.547Z,14.80
2023-04-15T03:02:23.807Z,15.32
2023-04-15T03:04:31.173Z,14.60
2023-04-15T03:06:35.458Z,13.05
2023-04-15T03:08:39.604Z,12.30
2023-04-15T03:10:43.857Z,14.18
2023-04-15T03:12:48.052Z,12.05
2023-04-15T03:14:58.043Z,10.40
2023-04-15T03:17:10.141Z,8.93
2023-04-15T03:19:15.895Z,9.85
2023-04-15T03:21:22.462Z,10.70
2023-04-15T03:23:26.852Z,9.05
2023-04-15T03:25:31.852Z,10.63
2023-04-15T03:27:39.008Z,12.75
2023-04-15T03:31:47.435Z,8.75
2023-04-15T03:33:51.755Z,9.77
2023-04-15T03:35:56.025Z,12.73
2023-04-15T03:38:01.806Z,9.85
2023-04-15T03:40:07.701Z,10.45
2023-04-15T03:42:12.143Z,14.80
2023-04-15T03:44:16.684Z,12.40
2023-04-15T03:46:21.211Z,9.80
2023-04-15T03:48:25.675Z,19.60
2023-04-15T03:50:29.999Z,9.10
2023-04-15T03:52:34.177Z,10.20
2023-04-15T03:54:39.816Z,12.75
2023-04-15T03:56:44.036Z,10.93
2023-04-15T03:58:48.070Z,7.60
2023-04-15T04:00:52.861Z,8.23
2023-04-15T04:02:57.355Z,10.80
2023-04-15T04:05:01.735Z,7.28
2023-04-15T04:07:05.951Z,8.48
2023-04-15T04:09:10.135Z,10.15
2023-04-15T04:11:15.783Z,6.95
2023-04-15T04:13:19.967Z,6.53
2023-04-15T04:15:24.094Z,9.20
2023-04-15T04:17:28.363Z,6.53
2023-04-15T04:19:32.815Z,7.72
2023-04-15T04:21:37.036Z,7.75
2023-04-15T04:23:41.359Z,6.65
2023-04-15T04:25:45.634Z,7.13
2023-04-15T04:27:51.337Z,6.65
2023-04-15T04:31:59.245Z,8.18
2023-04-15T04:34:03.398Z,6.93
2023-04-15T04:36:08.159Z,7.40
2023-04-15T04:38:12.471Z,10.88
2023-04-15T04:40:17.112Z,9.45
2023-04-15T04:42:21.308Z,6.80
2023-04-15T04:44:27.450Z,5.53
2023-04-15T04:46:31.594Z,5.85
2023-04-15T04:48:35.761Z,6.00
2023-04-15T04:50:40.148Z,6.75
2023-04-15T04:52:44.291Z,5.90
2023-04-15T04:54:48.430Z,6.80
2023-04-15T04:56:52.542Z,5.95
2023-04-15T04:58:56.799Z,7.32
2023-04-15T05:01:03.466Z,4.63
2023-04-15T05:03:07.750Z,8.55
2023-04-15T05:05:12.324Z,5.15
2023-04-15T05:07:16.536Z,7.15
2023-04-15T05:09:20.855Z,7.95
2023-04-15T05:11:25.011Z,5.85
2023-04-15T05:13:30.430Z,6.57
2023-04-15T05:15:37.173Z,17.00
2023-04-15T05:17:42.805Z,16.77
2023-04-15T05:19:47.172Z,27.15
2023-04-15T05:21:51.437Z,47.08
2023-04-15T05:23:55.882Z,23.05
2023-04-15T05:25:59.984Z,14.77
2023-04-15T05:28:04.128Z,12.93
2023-04-15T05:30:09.885Z,12.73
2023-04-15T05:32:15.241Z,11.98
2023-04-15T05:34:20.793Z,12.68
2023-04-15T05:36:24.966Z,18.88
2023-04-15T05:38:29.062Z,10.70
2023-04-15T05:40:33.278Z,9.02
2023-04-15T05:42:37.679Z,6.93
2023-04-15T05:44:42.037Z,8.93
2023-04-15T05:46:46.121Z,8.90
2023-04-15T05:48:50.413Z,11.57
2023-04-15T05:50:56.367Z,8.63
2023-04-15T05:53:01.112Z,12.10
2023-04-15T05:55:05.884Z,10.67
2023-04-15T05:57:10.008Z,11.05
2023-04-15T05:59:14.134Z,11.40
2023-04-15T06:01:18.444Z,14.77
2023-04-15T06:03:23.409Z,12.00
2023-04-15T06:05:28.213Z,17.13
2023-04-15T06:07:34.023Z,12.17
2023-04-15T06:09:38.200Z,12.65
2023-04-15T06:11:42.543Z,13.80
2023-04-15T06:13:46.695Z,12.73
2023-04-15T06:15:51.140Z,12.52
2023-04-15T06:17:55.337Z,11.10
2023-04-15T06:19:59.457Z,11.05
2023-04-15T06:22:04.160Z,14.30
2023-04-15T06:24:09.864Z,10.25
2023-04-15T06:26:14.126Z,12.23
2023-04-15T06:28:18.324Z,15.13
2023-04-15T06:30:24.389Z,12.60
2023-04-15T06:32:29.206Z,12.52
2023-04-15T06:34:33.431Z,12.27
2023-04-15T06:36:37.529Z,10.02
2023-04-15T06:38:41.830Z,11.32
2023-04-15T06:40:47.391Z,11.02
2023-04-15T06:44:55.455Z,17.27
2023-04-15T06:46:59.571Z,18.58
2023-04-15T06:49:04.150Z,22.13
2023-04-15T06:51:08.482Z,13.98
2023-04-15T06:53:12.694Z,15.90
2023-04-15T06:55:17.002Z,14.23
2023-04-15T06:57:22.641Z,13.77
2023-04-15T06:59:27.621Z,15.15
2023-04-15T07:01:32.203Z,18.98
2023-04-15T07:03:36.593Z,11.30
2023-04-15T07:05:40.815Z,14.15
2023-04-15T07:07:45.752Z,12.70
2023-04-15T07:09:50.078Z,9.73
2023-04-15T07:11:54.190Z,10.93
2023-04-15T07:14:00.162Z,10.77
2023-04-15T07:16:04.710Z,10.55
2023-04-15T07:18:09.956Z,9.95
2023-04-15T07:20:14.380Z,9.75
2023-04-15T07:22:18.475Z,10.75
2023-04-15T07:24:23.667Z,10.43
2023-04-15T07:26:27.827Z,10.63
2023-04-15T07:28:32.240Z,9.88
2023-04-15T07:30:38.738Z,9.32
2023-04-15T07:32:43.295Z,10.73
2023-04-15T07:34:47.470Z,13.10
2023-04-15T07:36:52.404Z,8.32
2023-04-15T07:38:56.561Z,5.85
2023-04-15T07:41:00.704Z,11.35
2023-04-15T07:43:04.912Z,9.50
2023-04-15T07:45:10.296Z,7.70
2023-04-15T07:47:16.044Z,9.48
2023-04-15T07:49:21.638Z,6.00
2023-04-15T07:53:30.774Z,3.88
2023-04-15T07:55:34.868Z,4.43
2023-04-15T07:57:39.181Z,5.78
2023-04-15T07:59:43.288Z,5.93
2023-04-15T08:01:47.523Z,6.65
2023-04-15T08:03:53.550Z,8.32
2023-04-15T08:05:58.037Z,8.73
2023-04-15T08:08:02.343Z,5.22
2023-04-15T08:10:07.874Z,5.63
2023-04-15T08:12:13.756Z,5.30
2023-04-15T08:14:17.866Z,5.18
2023-04-15T08:16:23.979Z,6.57
2023-04-15T08:18:28.152Z,7.28
2023-04-15T08:20:34.234Z,6.15
2023-04-15T08:22:38.393Z,5.43
2023-04-15T08:24:42.511Z,3.88
2023-04-15T08:26:47.531Z,2.25
2023-04-15T08:28:51.992Z,2.03
2023-04-15T08:30:56.352Z,1.38
2023-04-15T08:33:01.524Z,2.63
2023-04-15T08:35:06.847Z,1.77
2023-04-15T08:37:12.819Z,2.05
2023-04-15T08:39:17.039Z,2.20
2023-04-15T08:41:26.512Z,2.65
2023-04-15T08:43:35.366Z,3.83
2023-04-15T08:45:40.114Z,4.40
2023-04-15T08:47:46.185Z,1.88
2023-04-15T08:49:54.281Z,2.90
2023-04-15T08:52:00.258Z,2.85
2023-04-15T08:54:05.863Z,4.40
2023-04-15T08:56:12.119Z,3.90
2023-04-15T08:58:17.333Z,2.97
2023-04-15T09:00:22.574Z,3.30
2023-04-15T09:02:27.924Z,3.25
2023-04-15T09:04:32.475Z,2.97
2023-04-15T09:06:36.665Z,3.70
2023-04-15T09:08:40.965Z,4.88
2023-04-15T09:10:46.584Z,7.47
2023-04-15T09:12:50.822Z,5.15
2023-04-15T09:14:55.565Z,2.83
2023-04-15T09:17:01.365Z,3.05
2023-04-15T09:19:23.076Z,3.33
2023-04-15T09:21:28.161Z,4.35
2023-04-15T09:23:33.371Z,5.47
2023-04-15T09:25:38.351Z,2.05
2023-04-15T09:27:50.150Z,6.18
2023-04-15T09:29:54.683Z,4.00
2023-04-15T09:32:11.169Z,2.78
2023-04-15T09:34:15.368Z,2.92
2023-04-15T09:36:19.665Z,3.20
2023-04-15T09:38:23.902Z,5.15
2023-04-15T09:40:36.313Z,2.83
2023-04-15T09:45:13.109Z,3.65
2023-04-15T09:47:29.698Z,4.72
2023-04-15T09:49:34.613Z,2.47
2023-04-15T09:51:39.110Z,6.13
2023-04-15T09:53:43.280Z,3.30
2023-04-15T09:55:50.869Z,3.70
2023-04-15T09:57:55.372Z,4.18
2023-04-15T09:59:59.949Z,3.33
2023-04-15T10:02:07.899Z,1.98
2023-04-15T10:04:12.752Z,2.15
2023-04-15T10:06:17.413Z,1.60
2023-04-15T10:08:24.165Z,2.65
2023-04-15T10:10:28.263Z,3.97
2023-04-15T10:12:33.871Z,3.33
2023-04-15T10:16:49.294Z,7.65
2023-04-15T10:18:57.454Z,3.50
2023-04-15T10:21:02.323Z,5.10
2023-04-15T10:23:09.440Z,6.45
2023-04-15T10:25:16.883Z,4.07
2023-04-15T10:27:22.404Z,2.78
2023-04-15T10:29:30.114Z,5.43
2023-04-15T10:31:36.230Z,4.43
2023-04-15T10:33:41.007Z,3.80
2023-04-15T10:35:49.347Z,6.33
2023-04-15T10:37:53.618Z,3.92
2023-04-15T10:39:58.288Z,7.40
2023-04-15T10:42:07.893Z,9.65
2023-04-15T10:44:12.196Z,14.85
2023-04-15T10:46:21.268Z,9.05
2023-04-15T10:48:25.478Z,3.95
2023-04-15T10:50:31.722Z,3.88
2023-04-15T10:52:44.695Z,4.20
2023-04-15T10:54:49.194Z,3.30
2023-04-15T10:57:08.627Z,6.55
2023-04-15T10:59:12.920Z,5.22
2023-04-15T11:01:17.235Z,5.30
2023-04-15T11:03:39.065Z,4.45
2023-04-15T11:05:53.689Z,1.98
2023-04-15T11:07:59.574Z,4.22
2023-04-15T11:10:03.920Z,2.65
2023-04-15T11:12:10.019Z,7.82
2023-04-15T11:14:19.428Z,3.58
2023-04-15T11:16:23.957Z,7.95
2023-04-15T11:18:33.269Z,4.60
2023-04-15T11:20:38.067Z,3.72
2023-04-15T11:22:48.442Z,2.95
2023-04-15T11:24:54.989Z,3.35
2023-04-15T11:29:03.705Z,3.00
2023-04-15T11:31:11.560Z,4.88
2023-04-15T11:33:15.799Z,3.13
2023-04-15T11:35:20.358Z,5.68
2023-04-15T11:37:30.032Z,4.88
2023-04-15T11:39:34.233Z,3.50
2023-04-15T11:41:43.389Z,3.55
2023-04-15T11:43:47.479Z,3.25
2023-04-15T11:45:55.024Z,5.50
2023-04-15T11:48:07.114Z,2.70
2023-04-15T11:50:18.707Z,3.88
2023-04-15T11:52:21.913Z,4.70
2023-04-15T11:54:24.972Z,5.07
2023-04-15T11:56:28.110Z,4.38
2023-04-15T11:58:34.676Z,4.07
2023-04-15T12:00:38.388Z,5.47
2023-04-15T12:02:41.768Z,5.55
2023-04-15T12:04:44.821Z,5.28
2023-04-15T12:06:47.832Z,5.40
2023-04-15T12:08:55.776Z,5.70
2023-04-15T12:11:00.041Z,4.03
2023-04-15T12:13:07.409Z,11.90
2023-04-15T12:15:12.221Z,6.00
2023-04-15T12:17:15.108Z,6.40
2023-04-15T12:19:23.186Z,7.68
2023-04-15T12:21:27.991Z,6.47
2023-04-15T12:23:31.255Z,8.32
2023-04-15T12:25:35.855Z,9.38
2023-04-15T12:27:39.005Z,6.63
2023-04-15T12:29:46.230Z,6.78
2023-04-15T12:31:52.462Z,7.05
2023-04-15T12:33:56.562Z,6.53
2023-04-15T12:35:59.703Z,6.60
2023-04-15T12:38:02.593Z,6.32
2023-04-15T12:40:09.723Z,5.05
2023-04-15T12:42:13.282Z,5.85
2023-04-15T12:44:16.192Z,5.55
2023-04-15T12:46:19.294Z,6.50
2023-04-15T12:48:23.889Z,5.90
2023-04-15T12:50:26.723Z,6.63
2023-04-15T12:52:29.650Z,4.60
2023-04-15T12:54:32.914Z,7.40
2023-04-15T12:56:36.233Z,6.30
2023-04-15T12:58:39.033Z,5.63
2023-04-15T13:00:41.990Z,7.43
2023-04-15T13:02:45.626Z,4.72
2023-04-15T13:04:50.139Z,5.38
2023-04-15T13:06:53.126Z,5.82
2023-04-15T13:08:58.758Z,4.75
2023-04-15T13:11:01.966Z,7.45
2023-04-15T13:13:05.482Z,4.18
2023-04-15T13:15:11.718Z,4.55
2023-04-15T13:17:14.771Z,4.68
2023-04-15T13:19:17.920Z,5.07
2023-04-15T13:21:22.390Z,5.18
2023-04-15T13:23:25.363Z,5.97
2023-04-15T13:25:28.382Z,4.05
2023-04-15T13:27:31.963Z,5.50
2023-04-15T13:29:34.953Z,6.20
2023-04-15T13:31:37.982Z,3.60
2023-04-15T13:33:41.393Z,4.45
2023-04-15T13:35:44.460Z,6.88
2023-04-15T13:37:49.115Z,8.23
2023-04-15T13:39:52.168Z,6.53
2023-04-15T13:41:56.303Z,4.05
2023-04-15T13:43:59.284Z,5.63
2023-04-15T13:46:02.774Z,5.00
2023-04-15T13:48:06.383Z,4.88
2023-04-15T13:50:10.088Z,4.80
2023-04-15T13:52:13.236Z,4.53
2023-04-15T13:54:17.880Z,3.95
2023-04-15T13:56:21.825Z,5.13
2023-04-15T13:58:25.034Z,5.55
2023-04-15T14:00:27.934Z,4.45
2023-04-15T14:02:31.273Z,8.30
2023-04-15T14:04:34.279Z,8.05
2023-04-15T14:06:37.417Z,7.28
2023-04-15T14:08:40.422Z,6.22
2023-04-15T14:10:48.728Z,6.97
2023-04-15T14:12:51.725Z,5.65
2023-04-15T14:14:54.873Z,5.65
2023-04-15T14:16:57.956Z,7.20
2023-04-15T14:19:01.477Z,3.90
2023-04-15T14:21:06.800Z,5.28
2023-04-15T14:23:10.196Z,3.60
2023-04-15T14:25:20.150Z,3.17
2023-04-15T14:27:35.200Z,5.05
2023-04-15T14:29:38.184Z,5.05
2023-04-15T14:31:41.232Z,5.40
2023-04-15T14:33:46.609Z,4.65
2023-04-15T14:35:50.387Z,5.25
2023-04-15T14:37:53.791Z,4.07
2023-04-15T14:39:56.788Z,5.07
2023-04-15T14:41:59.711Z,5.50
2023-04-15T14:44:04.148Z,5.40
2023-04-15T14:46:07.395Z,6.75
2023-04-15T14:48:10.759Z,4.90
2023-04-15T14:50:13.636Z,6.38
2023-04-15T14:52:17.049Z,7.25
2023-04-15T14:54:21.850Z,4.72
2023-04-15T14:56:25.262Z,7.22
2023-04-15T14:58:28.273Z,5.22
2023-04-15T15:00:32.990Z,6.28
2023-04-15T15:02:40.148Z,7.90
2023-04-15T15:04:43.513Z,5.35
2023-04-15T15:06:49.008Z,5.95
2023-04-15T15:08:52.303Z,5.53
2023-04-15T15:10:55.103Z,5.63
2023-04-15T15:12:58.236Z,5.68
2023-04-15T15:15:03.089Z,7.30
2023-04-15T15:17:10.307Z,5.45
2023-04-15T15:19:13.272Z,8.52
2023-04-15T15:21:16.235Z,10.25
2023-04-15T15:23:19.183Z,8.25
2023-04-15T15:25:22.273Z,7.05
2023-04-15T15:27:25.144Z,6.57
2023-04-15T15:29:28.238Z,6.75
2023-04-15T15:31:31.561Z,9.50
2023-04-15T15:33:36.195Z,6.95
2023-04-15T15:35:39.957Z,9.73
2023-04-15T15:37:43.669Z,6.53
2023-04-15T15:39:46.552Z,8.45
2023-04-15T15:41:50.318Z,9.68
2023-04-15T15:43:53.835Z,7.43
2023-04-15T15:45:56.854Z,10.40
2023-04-15T15:48:00.485Z,9.40
2023-04-15T15:50:06.217Z,7.65
2023-04-15T15:52:09.396Z,7.15
2023-04-15T15:54:12.385Z,9.55
2023-04-15T15:56:15.358Z,7.25
2023-04-15T15:58:18.302Z,10.77
2023-04-15T16:00:22.182Z,10.05
2023-04-15T16:02:45.839Z,7.95
2023-04-15T16:04:50.541Z,11.60
2023-04-15T16:06:55.023Z,7.90
2023-04-15T16:08:57.973Z,9.63
2023-04-15T16:11:01.129Z,9.20
2023-04-15T16:13:03.993Z,9.25
2023-04-15T16:15:07.928Z,9.38
2023-04-15T16:17:11.051Z,6.65
2023-04-15T16:19:14.371Z,6.60
2023-04-15T16:21:17.262Z,6.20
2023-04-15T16:23:21.945Z,7.07
2023-04-15T16:25:25.561Z,8.23
2023-04-15T16:27:28.794Z,10.30
2023-04-15T16:29:31.852Z,8.00
2023-04-15T16:31:35.171Z,8.25
2023-04-15T16:33:38.073Z,8.40
2023-04-15T16:35:41.163Z,9.23
2023-04-15T16:37:44.043Z,6.07
2023-04-15T16:39:48.678Z,9.65
2023-04-15T16:41:51.610Z,7.40
2023-04-15T16:43:59.092Z,9.02
2023-04-15T16:46:02.309Z,7.45
2023-04-15T16:48:05.609Z,7.15
2023-04-15T16:50:09.674Z,7.05
2023-04-15T16:52:12.633Z,10.43
2023-04-15T16:54:15.722Z,10.00
2023-04-15T16:56:21.854Z,10.82
2023-04-15T16:58:24.703Z,11.07
2023-04-15T17:00:27.901Z,12.63
2023-04-15T17:02:31.604Z,17.85
2023-04-15T17:04:35.378Z,21.67
2023-04-15T17:06:39.281Z,17.95
2023-04-15T17:08:42.401Z,13.68
2023-04-15T17:10:45.717Z,10.15
2023-04-15T17:12:52.456Z,74.85
2023-04-15T17:14:55.629Z,11.73
2023-04-15T17:16:58.789Z,27.55
2023-04-15T17:19:01.898Z,8.30
2023-04-15T17:21:08.788Z,11.05
2023-04-15T17:23:14.149Z,7.90
2023-04-15T17:25:17.297Z,13.05
2023-04-15T17:27:26.808Z,7.70
2023-04-15T17:29:31.540Z,8.68
2023-04-15T17:34:06.378Z,9.50
2023-04-15T17:36:31.889Z,6.03
2023-04-15T17:38:56.383Z,6.63
2023-04-15T17:41:19.451Z,6.15
2023-04-15T17:43:42.233Z,7.43
2023-04-15T17:46:07.674Z,5.57
2023-04-15T17:48:30.502Z,9.35
2023-04-15T17:50:53.629Z,33.97
2023-04-15T17:53:37.887Z,90.38
2023-04-15T17:56:47.108Z,49.85
2023-04-15T17:59:54.722Z,64.88
2023-04-15T18:03:02.830Z,21.65
2023-04-15T18:05:27.243Z,9.52
2023-04-15T18:07:51.820Z,7.85
2023-04-15T18:10:17.700Z,27.17
2023-04-15T18:13:05.844Z,172.57
2023-04-15T18:15:38.424Z,145.63
2023-04-15T18:18:04.475Z,165.00
2023-04-15T18:20:08.626Z,161.05
2023-04-15T18:22:11.631Z,204.45
2023-04-15T18:24:15.839Z,270.73
2023-04-15T18:26:18.876Z,111.45
2023-04-15T18:28:22.885Z,17.42
2023-04-15T18:30:25.788Z,8.52
2023-04-15T18:32:31.904Z,23.58
2023-04-15T18:34:36.357Z,48.47
2023-04-15T18:36:39.154Z,43.40
2023-04-15T18:38:42.232Z,38.38
2023-04-15T18:40:45.153Z,34.95
2023-04-15T18:42:48.021Z,39.67
2023-04-15T18:44:51.028Z,43.90
2023-04-15T18:46:53.918Z,13.85
2023-04-15T18:48:56.730Z,11.80
2023-04-15T18:51:01.017Z,12.18
2023-04-15T18:53:03.792Z,12.00
2023-04-15T18:55:07.822Z,10.90
2023-04-15T18:57:11.031Z,10.07
2023-04-15T18:59:28.876Z,8.88
2023-04-15T19:01:33.206Z,6.55
2023-04-15T19:03:36.848Z,8.93
2023-04-15T19:05:40.351Z,9.73
2023-04-15T19:07:44.797Z,11.73
2023-04-15T19:09:47.634Z,13.40
2023-04-15T19:11:50.660Z,13.05
2023-04-15T19:13:53.430Z,9.95
2023-04-15T19:15:56.600Z,14.45
2023-04-15T19:17:59.407Z,16.88
2023-04-15T19:20:02.490Z,13.68
2023-04-15T19:22:06.167Z,17.27
2023-04-15T19:24:10.681Z,13.18
2023-04-15T19:26:13.613Z,15.07
2023-04-15T19:28:16.760Z,12.27
2023-04-15T19:30:19.778Z,13.13
2023-04-15T19:32:22.711Z,11.35
2023-04-15T19:34:25.724Z,9.45
2023-04-15T19:36:28.882Z,11.18
2023-04-15T19:38:31.897Z,12.23
2023-04-15T19:40:36.464Z,11.10
2023-04-15T19:42:39.304Z,12.77
2023-04-15T19:44:43.144Z,21.42
2023-04-15T19:46:50.181Z,22.58
2023-04-15T19:48:53.854Z,19.25
2023-04-15T19:50:57.835Z,12.15
2023-04-15T19:53:00.804Z,20.63
2023-04-15T19:55:04.223Z,11.88
2023-04-15T19:57:08.634Z,16.98
2023-04-15T19:59:13.144Z,17.02
2023-04-15T20:01:16.133Z,13.33
2023-04-15T20:03:19.430Z,16.15
2023-04-15T20:05:22.915Z,14.02
2023-04-15T20:07:27.976Z,13.63
2023-04-15T20:09:36.370Z,14.88
2023-04-15T20:12:09.621Z,10.38
2023-04-15T20:14:12.547Z,9.98
2023-04-15T20:16:43.247Z,10.10
2023-04-15T20:19:21.851Z,11.45
2023-04-15T20:21:35.935Z,11.52
2023-04-15T20:23:39.089Z,12.45
2023-04-15T20:25:42.659Z,16.48
2023-04-15T20:27:45.675Z,15.45
2023-04-15T20:29:50.250Z,23.40
2023-04-15T20:31:53.126Z,26.55
2023-04-15T20:33:56.189Z,31.48
2023-04-15T20:36:00.003Z,41.80
2023-04-15T20:38:04.469Z,40.20
2023-04-15T20:40:08.642Z,31.23
2023-04-15T20:42:11.597Z,38.40
2023-04-15T20:44:14.542Z,36.25
2023-04-15T20:46:21.364Z,42.08
2023-04-15T20:48:24.803Z,41.88
2023-04-15T20:50:27.840Z,44.53
2023-04-15T20:52:30.654Z,51.22
2023-04-15T20:54:34.034Z,47.60
2023-04-15T20:56:36.904Z,45.78
2023-04-15T20:58:39.798Z,34.63
2023-04-15T21:00:42.829Z,44.88
2023-04-15T21:02:47.548Z,51.22
2023-04-15T21:04:50.686Z,52.77
2023-04-15T21:06:53.715Z,51.72
2023-04-15T21:08:56.635Z,47.45
2023-04-15T21:10:59.598Z,51.00
2023-04-15T21:13:02.855Z,48.13
2023-04-15T21:15:06.609Z,43.45
2023-04-15T21:17:11.209Z,45.55
2023-04-15T21:19:15.821Z,58.10
2023-04-15T21:21:18.715Z,58.97
2023-04-15T21:23:21.628Z,48.00
2023-04-15T21:25:24.571Z,44.60
2023-04-15T21:27:27.552Z,39.08
2023-04-15T21:29:30.513Z,45.47
2023-04-15T21:31:33.514Z,47.50
2023-04-15T21:33:36.434Z,41.63
2023-04-15T21:35:40.918Z,37.55
2023-04-15T21:37:43.750Z,38.03
2023-04-15T21:39:46.646Z,41.65
2023-04-15T21:41:50.107Z,37.40
2023-04-15T21:43:53.476Z,38.58
2023-04-15T21:46:23.293Z,34.45
2023-04-15T21:48:19.238Z,31.63
2023-04-15T21:50:23.043Z,36.92
2023-04-15T21:52:27.451Z,35.05
2023-04-15T21:54:31.489Z,48.67
2023-04-15T21:56:34.555Z,42.15
2023-04-15T21:58:37.544Z,38.85
2023-04-15T22:00:40.976Z,36.05
2023-04-15T22:02:44.109Z,37.92
2023-04-15T22:04:47.192Z,43.42
2023-04-15T22:06:50.029Z,35.95
2023-04-15T22:08:57.487Z,32.80
2023-04-15T22:11:00.991Z,31.80
2023-04-15T22:13:07.430Z,30.40
2023-04-15T22:15:10.925Z,32.95
2023-04-15T22:17:14.014Z,24.58
2023-04-15T22:19:16.855Z,25.98
2023-04-15T22:21:20.097Z,19.75
2023-04-15T22:23:23.033Z,23.90
2023-04-15T22:25:27.516Z,21.00
2023-04-15T22:27:30.591Z,19.73
2023-04-15T22:29:33.557Z,21.55
2023-04-15T22:31:36.532Z,18.58
2023-04-15T22:33:39.433Z,14.10
2023-04-15T22:35:42.353Z,16.30
2023-04-15T22:37:45.295Z,16.38
2023-04-15T22:39:48.232Z,16.50
2023-04-15T22:41:52.682Z,15.77
2023-04-15T22:43:55.830Z,22.35
2023-04-15T22:45:58.780Z,18.83
2023-04-15T22:48:03.036Z,15.55
2023-04-15T22:50:07.258Z,21.27
2023-04-15T22:52:14.510Z,17.50
2023-04-15T22:54:23.100Z,14.32
2023-04-15T22:56:26.333Z,17.48
2023-04-15T22:58:32.332Z,16.95
2023-04-15T23:00:35.170Z,15.23
2023-04-15T23:02:38.175Z,14.48
2023-04-15T23:04:41.469Z,15.82
2023-04-15T23:06:44.750Z,18.38
2023-04-15T23:08:48.168Z,18.10
2023-04-15T23:10:51.439Z,21.63
2023-04-15T23:12:54.649Z,20.52
2023-04-15T23:14:59.220Z,18.02
2023-04-15T23:17:02.107Z,25.45
2023-04-15T23:19:05.279Z,23.15
2023-04-15T23:21:08.041Z,23.20
2023-04-15T23:23:10.981Z,18.88
2023-04-15T23:25:13.971Z,23.13
2023-04-15T23:27:19.209Z,22.83
2023-04-15T23:29:22.331Z,28.25
2023-04-15T23:31:26.782Z,29.67
2023-04-15T23:33:30.344Z,46.95
2023-04-15T23:35:33.439Z,59.53
2023-04-15T23:37:36.217Z,18.70
2023-04-15T23:39:39.161Z,18.38
2023-04-15T23:41:42.119Z,15.77
2023-04-15T23:43:45.234Z,15.32
2023-04-15T23:45:48.342Z,15.57
2023-04-15T23:47:53.109Z,13.65
2023-04-15T23:49:56.717Z,15.83
2023-04-15T23:51:59.694Z,15.63
2023-04-15T23:54:02.685Z,17.40
2023-04-15T23:56:06.502Z,17.10
2023-04-15T23:58:09.389Z,19.10
